Time;durP1;ratioP1;P1;durP2;ratioP2;P2;SDS_P1;SDS_P2;PMS_P1;PMS_P2;Temp;Humidity;BMP_temperature;BMP_pressure;BME280_temperature;BME280_humidity;BME280_pressure;Samples;Min_cycle;Max_cycle;Signal;HPM_P1;HPM_P2
2022/07/21 00:02:16;;;;;;;2.50;2.40;;;;;;;;;;1877016;76;26664;-88
2022/07/21 00:04:44;;;;;;;2.67;2.58;;;;;;;;;;1882023;75;26342;-87
2022/07/21 00:07:12;;;;;;;2.40;2.30;;;;;;;;;;1883981;75;26168;-87
2022/07/21 00:09:39;;;;;;;2.52;2.42;;;;;;;;;;1888742;75;26180;-86
2022/07/21 00:12:07;;;;;;;2.80;2.70;;;;;;;;;;1882652;75;26687;-87
2022/07/21 00:14:34;;;;;;;2.75;2.65;;;;;;;;;;1884956;75;26184;-88
2022/07/21 00:17:02;;;;;;;2.40;2.30;;;;;;;;;;1892917;75;26269;-88
2022/07/21 00:19:29;;;;;;;2.40;2.30;;;;;;;;;;1879441;74;26266;-87
2022/07/21 00:21:56;;;;;;;2.30;2.20;;;;;;;;;;1891697;75;26220;-88
2022/07/21 00:24:23;;;;;;;2.50;2.40;;;;;;;;;;1877609;75;26634;-87
2022/07/21 00:26:51;;;;;;;2.27;2.20;;;;;;;;;;1878990;75;26637;-87
2022/07/21 00:29:18;;;;;;;2.47;2.37;;;;;;;;;;1881412;75;26613;-88
2022/07/21 00:31:45;;;;;;;2.70;2.60;;;;;;;;;;1878046;75;26192;-88
2022/07/21 00:34:12;;;;;;;2.27;2.17;;;;;;;;;;1899100;75;26196;-88
2022/07/21 00:36:40;;;;;;;2.70;2.60;;;;;;;;;;1890264;75;26624;-88
2022/07/21 00:39:07;;;;;;;2.50;2.40;;;;;;;;;;1888763;75;26698;-88
2022/07/21 00:41:34;;;;;;;2.40;2.30;;;;;;;;;;1869610;75;26223;-88
2022/07/21 00:44:02;;;;;;;2.50;2.40;;;;;;;;;;1891634;75;26201;-88
2022/07/21 00:46:30;;;;;;;2.67;2.58;;;;;;;;;;1896235;76;26685;-88
2022/07/21 00:48:57;;;;;;;2.50;2.40;;;;;;;;;;1896000;75;26204;-87
2022/07/21 00:51:24;;;;;;;2.45;2.35;;;;;;;;;;1890629;75;26192;-87
2022/07/21 00:53:52;;;;;;;2.85;2.65;;;;;;;;;;1876129;75;26290;-87
2022/07/21 00:56:21;;;;;;;2.50;2.40;;;;;;;;;;1883534;75;26222;-88
2022/07/21 00:58:48;;;;;;;2.20;2.10;;;;;;;;;;1890908;75;26302;-88
2022/07/21 01:01:16;;;;;;;2.37;2.27;;;;;;;;;;1883512;75;26263;-88
2022/07/21 01:03:43;;;;;;;2.33;2.22;;;;;;;;;;1893220;75;26254;-88
2022/07/21 01:06:10;;;;;;;2.70;2.60;;;;;;;;;;1885329;76;27012;-87
2022/07/21 01:08:37;;;;;;;2.52;2.42;;;;;;;;;;1886811;75;26715;-88
2022/07/21 01:11:05;;;;;;;2.50;2.40;;;;;;;;;;1881917;75;26204;-88
2022/07/21 01:13:33;;;;;;;2.40;2.30;;;;;;;;;;1888624;75;26203;-88
2022/07/21 01:16:00;;;;;;;2.50;2.40;;;;;;;;;;1883767;75;26721;-87
2022/07/21 01:18:27;;;;;;;2.33;2.22;;;;;;;;;;1884097;75;26204;-88
2022/07/21 01:20:55;;;;;;;2.47;2.37;;;;;;;;;;1889123;75;26725;-88
2022/07/21 01:23:22;;;;;;;2.50;2.40;;;;;;;;;;1890747;75;26248;-88
2022/07/21 01:25:50;;;;;;;2.50;2.40;;;;;;;;;;1884994;76;26259;-88
2022/07/21 01:28:18;;;;;;;2.40;2.30;;;;;;;;;;1890010;75;26219;-88
2022/07/21 01:30:45;;;;;;;2.50;2.40;;;;;;;;;;1889388;75;26328;-89
2022/07/21 01:33:12;;;;;;;2.40;2.30;;;;;;;;;;1885788;75;26600;-88
2022/07/21 01:35:41;;;;;;;2.20;2.10;;;;;;;;;;1871385;75;26268;-88
2022/07/21 01:41:28;;;;;;;2.70;2.60;;;;;;;;;;1895160;75;26242;-88
2022/07/21 01:43:22;;;;;;;2.45;2.35;;;;;;;;;;1881363;75;26274;-88
2022/07/21 01:45:49;;;;;;;2.47;2.37;;;;;;;;;;1882736;75;26265;-89
2022/07/21 01:48:17;;;;;;;2.42;2.33;;;;;;;;;;1879460;75;26171;-88
2022/07/21 01:50:44;;;;;;;2.58;2.47;;;;;;;;;;1883552;75;26184;-88
2022/07/21 01:53:11;;;;;;;2.37;2.27;;;;;;;;;;1868598;75;26214;-89
2022/07/21 01:55:38;;;;;;;2.40;2.30;;;;;;;;;;1880522;75;26256;-88
2022/07/21 01:58:06;;;;;;;2.50;2.40;;;;;;;;;;1878588;75;26644;-89
2022/07/21 02:00:33;;;;;;;2.45;2.35;;;;;;;;;;1882417;75;26850;-88
2022/07/21 02:03:00;;;;;;;2.35;2.25;;;;;;;;;;1885553;75;26255;-87
2022/07/21 02:05:27;;;;;;;2.50;2.40;;;;;;;;;;1878275;75;26218;-87
2022/07/21 02:07:55;;;;;;;2.20;2.10;;;;;;;;;;1895988;75;26224;-88
2022/07/21 02:10:22;;;;;;;2.05;1.95;;;;;;;;;;1890033;75;26165;-88
2022/07/21 02:12:50;;;;;;;2.40;2.30;;;;;;;;;;1890352;75;26183;-88
2022/07/21 02:15:17;;;;;;;2.15;2.05;;;;;;;;;;1880973;76;27086;-89
2022/07/21 02:17:44;;;;;;;2.30;2.20;;;;;;;;;;1867455;75;26273;-88
2022/07/21 02:20:12;;;;;;;2.20;2.10;;;;;;;;;;1893476;75;26204;-89
2022/07/21 02:22:39;;;;;;;2.05;2.05;;;;;;;;;;1886794;75;26679;-88
2022/07/21 02:25:06;;;;;;;2.30;2.20;;;;;;;;;;1878868;76;26642;-87
2022/07/21 02:27:33;;;;;;;2.42;2.33;;;;;;;;;;1878269;75;26171;-87
2022/07/21 02:30:01;;;;;;;2.30;2.20;;;;;;;;;;1888708;74;26256;-88
2022/07/21 02:32:28;;;;;;;2.40;2.30;;;;;;;;;;1874553;75;26207;-87
2022/07/21 02:34:55;;;;;;;2.30;2.20;;;;;;;;;;1885891;75;26301;-88
2022/07/21 02:37:22;;;;;;;1.98;1.98;;;;;;;;;;1883666;75;26168;-88
2022/07/21 02:39:50;;;;;;;2.33;2.22;;;;;;;;;;1881245;74;26281;-89
2022/07/21 02:42:17;;;;;;;2.33;2.22;;;;;;;;;;1874285;75;26186;-88
2022/07/21 02:44:44;;;;;;;2.37;2.27;;;;;;;;;;1882105;75;26279;-88
2022/07/21 02:47:12;;;;;;;2.27;2.17;;;;;;;;;;1885194;75;26266;-87
2022/07/21 02:49:39;;;;;;;2.50;2.40;;;;;;;;;;1867900;75;26600;-89
2022/07/21 02:52:06;;;;;;;2.05;2.05;;;;;;;;;;1873114;75;26608;-89
2022/07/21 02:54:34;;;;;;;2.37;2.27;;;;;;;;;;1875021;76;26210;-89
2022/07/21 02:57:01;;;;;;;2.40;2.30;;;;;;;;;;1890666;75;26298;-89
2022/07/21 02:59:28;;;;;;;2.20;2.10;;;;;;;;;;1895946;75;26194;-87
2022/07/21 03:01:55;;;;;;;2.25;2.15;;;;;;;;;;1886851;75;26746;-88
2022/07/21 03:04:23;;;;;;;2.22;2.12;;;;;;;;;;1881308;75;26666;-87
2022/07/21 03:06:50;;;;;;;2.40;2.30;;;;;;;;;;1873500;76;26203;-89
2022/07/21 03:09:17;;;;;;;2.10;2.10;;;;;;;;;;1899395;73;26204;-86
2022/07/21 03:11:44;;;;;;;2.00;2.00;;;;;;;;;;1875488;74;26281;-86
2022/07/21 03:14:12;;;;;;;2.30;2.20;;;;;;;;;;1872864;75;26211;-86
2022/07/21 03:16:39;;;;;;;2.08;2.00;;;;;;;;;;1897877;73;26227;-86
2022/07/21 03:19:06;;;;;;;2.27;2.20;;;;;;;;;;1893246;74;26231;-87
2022/07/21 03:21:33;;;;;;;2.30;2.20;;;;;;;;;;1893428;73;26252;-87
2022/07/21 03:24:01;;;;;;;2.02;2.00;;;;;;;;;;1886925;74;26224;-87
2022/07/21 03:26:28;;;;;;;2.40;2.30;;;;;;;;;;1881398;73;26177;-87
2022/07/21 03:28:55;;;;;;;2.35;2.25;;;;;;;;;;1881150;74;26208;-87
2022/07/21 03:31:23;;;;;;;2.30;2.20;;;;;;;;;;1886527;74;26241;-88
2022/07/21 03:33:50;;;;;;;2.35;2.25;;;;;;;;;;1877041;75;26559;-88
2022/07/21 03:36:17;;;;;;;2.30;2.20;;;;;;;;;;1865178;75;26280;-89
2022/07/21 03:38:45;;;;;;;2.02;2.02;;;;;;;;;;1892158;75;26208;-88
2022/07/21 03:41:12;;;;;;;2.27;2.17;;;;;;;;;;1871768;76;26246;-88
2022/07/21 03:43:39;;;;;;;2.25;2.15;;;;;;;;;;1884846;75;26301;-88
2022/07/21 03:46:06;;;;;;;2.45;2.27;;;;;;;;;;1886728;75;26582;-89
2022/07/21 03:48:34;;;;;;;2.30;2.20;;;;;;;;;;1891284;75;26807;-88
2022/07/21 03:51:01;;;;;;;2.10;2.00;;;;;;;;;;1885615;76;26187;-89
2022/07/21 03:53:28;;;;;;;2.37;2.27;;;;;;;;;;1888718;75;26191;-89
2022/07/21 03:55:56;;;;;;;1.90;1.90;;;;;;;;;;1896104;75;26188;-88
2022/07/21 03:58:23;;;;;;;2.22;2.12;;;;;;;;;;1891871;75;26592;-89
2022/07/21 04:00:50;;;;;;;2.12;2.02;;;;;;;;;;1872139;75;26344;-88
2022/07/21 04:03:18;;;;;;;2.20;2.10;;;;;;;;;;1874797;75;26250;-88
2022/07/21 04:05:45;;;;;;;2.27;2.17;;;;;;;;;;1898854;75;26252;-88
2022/07/21 04:08:13;;;;;;;2.47;2.37;;;;;;;;;;1875490;75;26175;-87
2022/07/21 04:10:41;;;;;;;2.20;2.10;;;;;;;;;;1885326;75;26619;-87
2022/07/21 04:13:10;;;;;;;2.22;2.12;;;;;;;;;;1880450;75;26203;-87
2022/07/21 04:15:37;;;;;;;2.12;2.10;;;;;;;;;;1885393;75;26339;-88
2022/07/21 04:18:05;;;;;;;2.30;2.20;;;;;;;;;;1868125;75;26600;-88
2022/07/21 04:20:33;;;;;;;2.52;2.42;;;;;;;;;;1897228;75;26247;-87
2022/07/21 04:23:00;;;;;;;2.47;2.37;;;;;;;;;;1878954;75;26195;-87
2022/07/21 04:25:29;;;;;;;2.30;2.20;;;;;;;;;;1893968;75;26289;-88
2022/07/21 04:27:57;;;;;;;2.25;2.15;;;;;;;;;;1887791;75;26215;-87
2022/07/21 04:30:25;;;;;;;2.30;2.20;;;;;;;;;;1886760;75;26239;-87
2022/07/21 04:32:52;;;;;;;2.30;2.20;;;;;;;;;;1895826;75;26265;-88
2022/07/21 04:35:19;;;;;;;2.35;2.25;;;;;;;;;;1905206;75;26614;-86
2022/07/21 04:37:47;;;;;;;2.50;2.40;;;;;;;;;;1883870;75;26199;-88
2022/07/21 04:40:14;;;;;;;2.45;2.35;;;;;;;;;;1866355;75;26252;-87
2022/07/21 04:42:42;;;;;;;2.25;2.15;;;;;;;;;;1893324;75;26236;-88
2022/07/21 04:45:10;;;;;;;2.40;2.30;;;;;;;;;;1893990;75;26644;-88
2022/07/21 04:47:44;;;;;;;2.40;2.30;;;;;;;;;;1888551;75;26167;-88
2022/07/21 04:50:12;;;;;;;2.25;2.15;;;;;;;;;;1888728;75;26192;-88
2022/07/21 04:52:39;;;;;;;2.10;2.10;;;;;;;;;;1870413;75;26196;-89
2022/07/21 04:55:07;;;;;;;2.50;2.40;;;;;;;;;;1894250;75;26915;-90
2022/07/21 04:57:38;;;;;;;2.20;2.10;;;;;;;;;;1880684;75;26250;-89
2022/07/21 05:00:06;;;;;;;2.30;2.20;;;;;;;;;;1890493;75;26211;-87
2022/07/21 05:02:34;;;;;;;2.60;2.50;;;;;;;;;;1886620;76;26172;-88
2022/07/21 05:05:01;;;;;;;2.42;2.33;;;;;;;;;;1887957;75;26182;-88
2022/07/21 05:07:28;;;;;;;2.33;2.22;;;;;;;;;;1875688;75;26273;-88
2022/07/21 05:09:57;;;;;;;2.30;2.20;;;;;;;;;;1885375;75;26728;-89
2022/07/21 05:12:24;;;;;;;2.52;2.42;;;;;;;;;;1867528;75;26240;-89
2022/07/21 05:14:51;;;;;;;2.27;2.20;;;;;;;;;;1889567;75;26631;-90
2022/07/21 05:17:18;;;;;;;2.55;2.45;;;;;;;;;;1894140;75;26753;-87
2022/07/21 05:19:49;;;;;;;2.50;2.40;;;;;;;;;;1879171;75;26297;-87
2022/07/21 05:22:15;;;;;;;2.37;2.27;;;;;;;;;;1880379;75;26202;-87
2022/07/21 05:24:42;;;;;;;2.37;2.27;;;;;;;;;;1882287;74;26301;-88
2022/07/21 05:27:09;;;;;;;2.60;2.50;;;;;;;;;;1877618;75;26167;-88
2022/07/21 05:29:36;;;;;;;2.42;2.33;;;;;;;;;;1874951;75;26716;-87
2022/07/21 05:32:04;;;;;;;2.50;2.40;;;;;;;;;;1865930;75;26259;-88
2022/07/21 05:34:31;;;;;;;2.50;2.40;;;;;;;;;;1887162;75;26249;-88
2022/07/21 05:36:58;;;;;;;2.67;2.58;;;;;;;;;;1875442;75;26291;-87
2022/07/21 05:39:26;;;;;;;2.58;2.47;;;;;;;;;;1875800;76;26197;-87
2022/07/21 05:41:53;;;;;;;2.75;2.65;;;;;;;;;;1895319;75;26219;-88
2022/07/21 05:44:20;;;;;;;2.52;2.42;;;;;;;;;;1897597;75;26738;-87
2022/07/21 05:46:47;;;;;;;2.50;2.40;;;;;;;;;;1885457;76;26254;-87
2022/07/21 05:49:15;;;;;;;2.80;2.70;;;;;;;;;;1881299;75;26196;-87
2022/07/21 05:51:42;;;;;;;2.70;2.60;;;;;;;;;;1869700;75;26291;-88
2022/07/21 05:54:09;;;;;;;2.58;2.47;;;;;;;;;;1878241;75;26298;-87
2022/07/21 05:56:36;;;;;;;2.83;2.72;;;;;;;;;;1886593;75;26592;-87
2022/07/21 05:59:04;;;;;;;2.72;2.62;;;;;;;;;;1881834;75;26645;-87
2022/07/21 06:01:31;;;;;;;2.87;2.70;;;;;;;;;;1867006;74;26728;-87
2022/07/21 06:03:58;;;;;;;2.90;2.80;;;;;;;;;;1886033;75;26979;-87
2022/07/21 06:06:25;;;;;;;2.70;2.60;;;;;;;;;;1881154;75;26215;-86
2022/07/21 06:08:53;;;;;;;2.83;2.65;;;;;;;;;;1877883;75;26288;-88
2022/07/21 06:11:21;;;;;;;2.83;2.72;;;;;;;;;;1884129;75;26190;-87
2022/07/21 06:13:49;;;;;;;2.42;2.33;;;;;;;;;;1888988;75;26865;-88
2022/07/21 06:16:16;;;;;;;3.00;2.90;;;;;;;;;;1879930;75;26320;-87
2022/07/21 06:18:43;;;;;;;2.80;2.70;;;;;;;;;;1888198;75;26228;-86
2022/07/21 06:21:11;;;;;;;3.05;2.85;;;;;;;;;;1883570;75;26257;-87
2022/07/21 06:23:38;;;;;;;2.80;2.70;;;;;;;;;;1876466;75;26670;-88
2022/07/21 06:26:05;;;;;;;3.02;2.90;;;;;;;;;;1891068;76;27126;-87
2022/07/21 06:28:33;;;;;;;2.90;2.80;;;;;;;;;;1889384;75;26203;-88
2022/07/21 06:31:00;;;;;;;3.20;3.10;;;;;;;;;;1897635;75;26191;-86
2022/07/21 06:33:27;;;;;;;3.02;2.92;;;;;;;;;;1885647;75;26164;-87
2022/07/21 06:35:54;;;;;;;2.80;2.70;;;;;;;;;;1882638;75;26627;-87
2022/07/21 06:38:22;;;;;;;2.90;2.80;;;;;;;;;;1897344;75;26604;-87
2022/07/21 06:40:49;;;;;;;3.20;3.02;;;;;;;;;;1881319;74;26253;-87
2022/07/21 06:43:16;;;;;;;2.95;2.85;;;;;;;;;;1872458;74;26191;-87
2022/07/21 06:45:44;;;;;;;3.40;3.20;;;;;;;;;;1893689;75;26192;-87
2022/07/21 06:48:12;;;;;;;3.05;2.85;;;;;;;;;;1887201;74;26305;-87
2022/07/21 06:50:39;;;;;;;3.05;2.95;;;;;;;;;;1878608;75;26186;-87
2022/07/21 06:53:06;;;;;;;3.10;3.00;;;;;;;;;;1889124;75;26202;-87
2022/07/21 06:55:34;;;;;;;3.00;2.90;;;;;;;;;;1886529;75;26183;-87
2022/07/21 06:58:15;;;;;;;3.40;3.20;;;;;;;;;;1880067;75;26195;-88
2022/07/21 07:00:43;;;;;;;3.35;3.15;;;;;;;;;;1883912;76;26242;-87
2022/07/21 07:03:11;;;;;;;3.17;3.05;;;;;;;;;;1887395;75;26269;-87
2022/07/21 07:05:38;;;;;;;3.50;3.30;;;;;;;;;;1894241;75;26288;-87
2022/07/21 07:08:06;;;;;;;3.15;3.05;;;;;;;;;;1892933;75;26663;-87
2022/07/21 07:10:33;;;;;;;3.50;3.30;;;;;;;;;;1878395;76;26196;-87
2022/07/21 07:13:01;;;;;;;3.35;3.20;;;;;;;;;;1888549;75;26200;-87
2022/07/21 07:15:29;;;;;;;3.62;3.42;;;;;;;;;;1886121;75;26167;-87
2022/07/21 07:17:56;;;;;;;3.40;3.20;;;;;;;;;;1887368;75;26188;-87
2022/07/21 07:20:23;;;;;;;3.50;3.30;;;;;;;;;;1894941;75;26205;-87
2022/07/21 07:22:51;;;;;;;3.10;3.00;;;;;;;;;;1894315;75;26630;-87
2022/07/21 07:25:18;;;;;;;3.67;3.40;;;;;;;;;;1884849;75;26180;-87
2022/07/21 07:27:46;;;;;;;3.40;3.20;;;;;;;;;;1875386;75;26176;-87
2022/07/21 07:30:14;;;;;;;3.42;3.30;;;;;;;;;;1894701;75;26175;-87
2022/07/21 07:32:41;;;;;;;3.50;3.30;;;;;;;;;;1891080;75;26171;-87
2022/07/21 07:35:09;;;;;;;3.55;3.35;;;;;;;;;;1889893;75;26278;-86
2022/07/21 07:37:38;;;;;;;3.30;3.10;;;;;;;;;;1871043;76;26247;-86
2022/07/21 07:40:07;;;;;;;3.20;3.10;;;;;;;;;;1880038;75;26729;-86
2022/07/21 07:42:35;;;;;;;3.67;3.47;;;;;;;;;;1891694;74;26200;-86
2022/07/21 07:45:03;;;;;;;3.45;3.25;;;;;;;;;;1879133;75;26746;-86
2022/07/21 07:47:30;;;;;;;3.02;2.92;;;;;;;;;;1877951;75;26223;-86
2022/07/21 07:49:57;;;;;;;3.25;3.15;;;;;;;;;;1870727;75;25431;-87
2022/07/21 07:52:25;;;;;;;3.40;3.20;;;;;;;;;;1867837;75;26206;-86
2022/07/21 07:54:52;;;;;;;3.60;3.40;;;;;;;;;;1893731;75;26613;-86
2022/07/21 07:57:19;;;;;;;3.50;3.30;;;;;;;;;;1874030;75;26870;-87
2022/07/21 07:59:47;;;;;;;3.60;3.40;;;;;;;;;;1876494;75;26968;-86
2022/07/21 08:02:14;;;;;;;3.55;3.37;;;;;;;;;;1876393;75;26668;-87
2022/07/21 08:04:41;;;;;;;3.67;3.47;;;;;;;;;;1890712;75;26156;-86
2022/07/21 08:07:09;;;;;;;3.55;3.35;;;;;;;;;;1896144;75;26199;-87
2022/07/21 08:09:36;;;;;;;3.50;3.30;;;;;;;;;;1884016;75;26647;-86
2022/07/21 08:12:03;;;;;;;3.62;3.42;;;;;;;;;;1887195;75;26631;-86
2022/07/21 08:14:31;;;;;;;3.62;3.42;;;;;;;;;;1890666;75;26182;-87
2022/07/21 08:16:58;;;;;;;3.55;3.35;;;;;;;;;;1898133;75;26286;-87
2022/07/21 08:19:26;;;;;;;3.20;3.10;;;;;;;;;;1878882;75;26735;-86
2022/07/21 08:21:53;;;;;;;3.30;3.10;;;;;;;;;;1894393;75;26632;-86
2022/07/21 08:24:20;;;;;;;3.50;3.30;;;;;;;;;;1892280;75;26713;-86
2022/07/21 08:26:48;;;;;;;3.60;3.40;;;;;;;;;;1894790;75;26200;-86
2022/07/21 08:29:15;;;;;;;3.25;3.15;;;;;;;;;;1876647;75;26329;-87
2022/07/21 08:31:42;;;;;;;3.35;3.15;;;;;;;;;;1885920;75;26347;-86
2022/07/21 08:34:09;;;;;;;3.50;3.30;;;;;;;;;;1886903;75;26226;-86
2022/07/21 08:36:37;;;;;;;3.40;3.20;;;;;;;;;;1893855;75;26350;-88
2022/07/21 08:39:04;;;;;;;3.72;3.52;;;;;;;;;;1889432;75;26688;-85
2022/07/21 08:41:32;;;;;;;3.60;3.40;;;;;;;;;;1885957;75;26196;-88
2022/07/21 08:44:00;;;;;;;3.83;3.55;;;;;;;;;;1890797;75;26644;-86
2022/07/21 08:46:28;;;;;;;3.62;3.42;;;;;;;;;;1890864;75;26676;-87
2022/07/21 08:48:55;;;;;;;3.70;3.50;;;;;;;;;;1887631;75;26206;-87
2022/07/21 08:51:22;;;;;;;3.25;3.10;;;;;;;;;;1888225;75;26608;-87
2022/07/21 08:53:50;;;;;;;3.10;3.00;;;;;;;;;;1892974;76;26261;-88
2022/07/21 08:56:17;;;;;;;3.67;3.47;;;;;;;;;;1891560;75;26203;-88
2022/07/21 08:58:44;;;;;;;3.40;3.25;;;;;;;;;;1893831;75;26795;-87
2022/07/21 09:01:11;;;;;;;3.60;3.40;;;;;;;;;;1873558;75;26624;-86
2022/07/21 09:03:39;;;;;;;3.45;3.25;;;;;;;;;;1883530;75;26249;-87
2022/07/21 09:06:08;;;;;;;3.80;3.60;;;;;;;;;;1899095;73;26176;-86
2022/07/21 09:08:37;;;;;;;3.27;3.17;;;;;;;;;;1890644;75;26192;-87
2022/07/21 09:11:08;;;;;;;3.55;3.35;;;;;;;;;;1882969;75;26810;-86
2022/07/21 09:13:36;;;;;;;3.50;3.30;;;;;;;;;;1890527;75;26414;-87
2022/07/21 09:16:03;;;;;;;3.62;3.42;;;;;;;;;;1876178;75;26581;-87
2022/07/21 09:18:31;;;;;;;3.50;3.30;;;;;;;;;;1895695;75;26262;-87
2022/07/21 09:21:02;;;;;;;3.72;3.52;;;;;;;;;;1880583;76;26191;-86
2022/07/21 09:23:29;;;;;;;3.50;3.30;;;;;;;;;;1875478;75;26280;-88
2022/07/21 09:26:02;;;;;;;3.20;3.10;;;;;;;;;;1872621;75;26675;-86
2022/07/21 09:28:28;;;;;;;3.45;3.30;;;;;;;;;;1875496;75;26199;-86
2022/07/21 09:31:06;;;;;;;4.00;3.62;;;;;;;;;;1881150;75;26643;-86
2022/07/21 09:33:34;;;;;;;3.70;3.50;;;;;;;;;;1884286;75;26188;-86
2022/07/21 09:36:09;;;;;;;3.58;3.42;;;;;;;;;;1868603;76;26237;-86
2022/07/21 09:38:38;;;;;;;3.58;3.37;;;;;;;;;;1882530;75;26211;-86
2022/07/21 09:41:06;;;;;;;3.62;3.42;;;;;;;;;;1895576;75;26199;-86
2022/07/21 09:43:36;;;;;;;3.50;3.30;;;;;;;;;;1881856;75;26194;-87
2022/07/21 09:46:04;;;;;;;3.75;3.55;;;;;;;;;;1885252;75;26196;-86
2022/07/21 09:48:32;;;;;;;3.60;3.40;;;;;;;;;;1898954;75;26578;-88
2022/07/21 09:51:01;;;;;;;3.85;3.65;;;;;;;;;;1868375;76;26183;-87
2022/07/21 09:53:29;;;;;;;3.62;3.42;;;;;;;;;;1869879;75;26234;-87
2022/07/21 09:55:57;;;;;;;3.52;3.40;;;;;;;;;;1876695;75;26246;-86
2022/07/21 09:58:24;;;;;;;3.70;3.50;;;;;;;;;;1873974;75;26269;-86
2022/07/21 10:00:53;;;;;;;3.70;3.50;;;;;;;;;;1873111;75;26997;-86
2022/07/21 10:03:20;;;;;;;3.60;3.40;;;;;;;;;;1887877;75;26652;-86
2022/07/21 10:05:48;;;;;;;3.42;3.22;;;;;;;;;;1891507;76;26189;-88
2022/07/21 10:08:15;;;;;;;3.45;3.33;;;;;;;;;;1882512;75;26202;-86
2022/07/21 10:10:43;;;;;;;3.52;3.33;;;;;;;;;;1892254;75;26245;-87
2022/07/21 10:13:10;;;;;;;3.60;3.40;;;;;;;;;;1887115;75;26971;-87
2022/07/21 10:15:37;;;;;;;3.50;3.30;;;;;;;;;;1881656;75;26249;-87
2022/07/21 10:18:05;;;;;;;3.65;3.45;;;;;;;;;;1886351;75;26331;-88
2022/07/21 10:20:35;;;;;;;3.75;3.55;;;;;;;;;;1896445;75;26245;-87
2022/07/21 10:23:18;;;;;;;3.40;3.20;;;;;;;;;;1872388;75;26218;-88
2022/07/21 10:25:46;;;;;;;3.60;3.40;;;;;;;;;;1877481;75;26168;-88
2022/07/21 10:28:18;;;;;;;3.60;3.40;;;;;;;;;;1889405;75;26639;-88
2022/07/21 10:30:47;;;;;;;3.65;3.45;;;;;;;;;;1895736;75;26289;-86
2022/07/21 10:33:15;;;;;;;3.20;3.10;;;;;;;;;;1883668;75;26211;-88
2022/07/21 10:35:44;;;;;;;3.67;3.37;;;;;;;;;;1886888;75;26198;-87
2022/07/21 10:38:28;;;;;;;3.30;3.10;;;;;;;;;;1880492;75;26580;-89
2022/07/21 10:40:55;;;;;;;3.58;3.37;;;;;;;;;;1880298;75;26278;-87
2022/07/21 10:43:27;;;;;;;3.60;3.40;;;;;;;;;;1881209;75;26682;-88
2022/07/21 10:45:55;;;;;;;3.70;3.50;;;;;;;;;;1883718;75;25661;-88
2022/07/21 10:48:42;;;;;;;3.17;3.08;;;;;;;;;;1892781;75;26631;-87
2022/07/21 10:51:10;;;;;;;3.33;3.20;;;;;;;;;;1875570;76;26169;-87
2022/07/21 10:53:38;;;;;;;3.17;3.00;;;;;;;;;;1887625;74;26596;-87
2022/07/21 10:56:05;;;;;;;3.20;3.10;;;;;;;;;;1883699;73;26201;-85
2022/07/21 10:58:34;;;;;;;3.37;3.27;;;;;;;;;;1884379;73;26220;-87
2022/07/21 11:01:05;;;;;;;3.30;3.20;;;;;;;;;;1883300;74;26243;-86
2022/07/21 11:03:38;;;;;;;3.60;3.40;;;;;;;;;;1891567;73;26264;-86
2022/07/21 11:06:15;;;;;;;3.22;3.10;;;;;;;;;;1895691;71;26227;-86
2022/07/21 11:08:44;;;;;;;2.98;2.87;;;;;;;;;;1874516;75;26328;-87
2022/07/21 11:11:16;;;;;;;3.05;2.85;;;;;;;;;;1898202;73;26201;-87
2022/07/21 11:13:59;;;;;;;3.40;3.20;;;;;;;;;;1900520;73;26185;-87
2022/07/21 11:16:56;;;;;;;3.20;3.10;;;;;;;;;;1877653;75;26270;-87
2022/07/21 11:19:31;;;;;;;3.10;3.00;;;;;;;;;;1882094;75;26192;-88
2022/07/21 11:21:59;;;;;;;3.30;3.20;;;;;;;;;;1881946;75;26672;-87
2022/07/21 11:24:27;;;;;;;3.40;3.20;;;;;;;;;;1896508;75;26212;-87
2022/07/21 11:26:59;;;;;;;3.10;3.00;;;;;;;;;;1879796;75;26578;-88
2022/07/21 11:29:26;;;;;;;3.33;3.12;;;;;;;;;;1903002;75;26632;-87
2022/07/21 11:31:54;;;;;;;3.15;2.95;;;;;;;;;;1875865;75;26257;-88
2022/07/21 11:34:21;;;;;;;2.80;2.70;;;;;;;;;;1895257;75;26267;-89
2022/07/21 11:36:50;;;;;;;3.00;2.90;;;;;;;;;;1886682;75;26659;-88
2022/07/21 11:39:19;;;;;;;3.00;2.90;;;;;;;;;;1874611;75;26718;-87
2022/07/21 11:41:46;;;;;;;3.02;2.92;;;;;;;;;;1888782;75;26276;-87
2022/07/21 11:44:15;;;;;;;3.00;2.90;;;;;;;;;;1889491;75;26199;-87
2022/07/21 11:46:46;;;;;;;3.00;2.90;;;;;;;;;;1887110;75;26200;-87
2022/07/21 11:49:14;;;;;;;2.72;2.62;;;;;;;;;;1885506;74;26356;-88
2022/07/21 11:51:47;;;;;;;3.00;2.90;;;;;;;;;;1875121;75;26339;-88
2022/07/21 11:54:22;;;;;;;3.30;3.10;;;;;;;;;;1888262;76;26334;-87
2022/07/21 11:56:51;;;;;;;3.35;3.15;;;;;;;;;;1890150;74;26372;-87
2022/07/21 11:59:18;;;;;;;2.98;2.87;;;;;;;;;;1881749;75;26195;-86
2022/07/21 12:01:49;;;;;;;2.92;2.83;;;;;;;;;;1890699;74;26627;-87
2022/07/21 12:04:30;;;;;;;3.22;3.02;;;;;;;;;;1884051;76;26218;-87
2022/07/21 12:06:58;;;;;;;3.10;3.00;;;;;;;;;;1875541;75;26676;-87
2022/07/21 12:09:26;;;;;;;3.40;3.20;;;;;;;;;;1896615;75;26269;-87
2022/07/21 12:11:53;;;;;;;2.95;2.85;;;;;;;;;;1891559;75;26199;-87
2022/07/21 12:14:22;;;;;;;2.95;2.85;;;;;;;;;;1889600;75;26188;-87
2022/07/21 12:16:54;;;;;;;3.00;2.90;;;;;;;;;;1878871;76;26755;-87
2022/07/21 12:19:21;;;;;;;2.80;2.70;;;;;;;;;;1895799;75;26180;-86
2022/07/21 12:21:52;;;;;;;2.87;2.77;;;;;;;;;;1888290;75;26277;-87
2022/07/21 12:24:21;;;;;;;3.00;2.90;;;;;;;;;;1885444;75;26713;-87
2022/07/21 12:26:48;;;;;;;2.85;2.75;;;;;;;;;;1896203;75;26679;-86
2022/07/21 12:29:28;;;;;;;3.20;3.00;;;;;;;;;;1878446;74;26674;-86
2022/07/21 12:31:56;;;;;;;2.90;2.80;;;;;;;;;;1899992;74;26212;-87
2022/07/21 12:34:24;;;;;;;2.80;2.70;;;;;;;;;;1881230;74;26171;-86
2022/07/21 12:36:52;;;;;;;2.92;2.83;;;;;;;;;;1883563;74;26281;-87
2022/07/21 12:42:07;;;;;;;2.80;2.70;;;;;;;;;;1873165;74;26209;-86
2022/07/21 12:44:34;;;;;;;2.80;2.70;;;;;;;;;;1876316;74;26423;-87
2022/07/21 12:47:15;;;;;;;3.27;2.98;;;;;;;;;;1880393;75;26206;-86
2022/07/21 12:49:56;;;;;;;3.00;2.90;;;;;;;;;;1886704;75;26250;-87
2022/07/21 12:52:24;;;;;;;3.30;3.20;;;;;;;;;;1892404;75;26200;-86
2022/07/21 12:54:51;;;;;;;3.30;3.10;;;;;;;;;;1887813;75;26195;-87
2022/07/21 12:57:19;;;;;;;3.30;3.00;;;;;;;;;;1895964;75;26913;-87
2022/07/21 12:59:46;;;;;;;3.10;3.00;;;;;;;;;;1896389;74;26604;-87
2022/07/21 13:02:13;;;;;;;3.30;3.10;;;;;;;;;;1890124;74;26693;-87
2022/07/21 13:04:40;;;;;;;3.08;2.98;;;;;;;;;;1892004;74;26264;-87
2022/07/21 13:07:08;;;;;;;2.95;2.85;;;;;;;;;;1891227;75;26403;-87
2022/07/21 13:09:35;;;;;;;3.60;3.40;;;;;;;;;;1882478;75;26751;-87
2022/07/21 13:12:03;;;;;;;3.58;3.27;;;;;;;;;;1881635;75;26230;-87
2022/07/21 13:14:31;;;;;;;3.30;3.10;;;;;;;;;;1890038;75;26204;-86
2022/07/21 13:16:59;;;;;;;3.47;3.25;;;;;;;;;;1873861;74;26208;-86
2022/07/21 13:19:26;;;;;;;3.47;3.27;;;;;;;;;;1879753;75;26270;-87
2022/07/21 13:21:54;;;;;;;3.30;3.10;;;;;;;;;;1884971;74;26203;-86
2022/07/21 13:24:21;;;;;;;3.62;3.42;;;;;;;;;;1902271;74;26286;-87
2022/07/21 13:26:48;;;;;;;3.00;2.90;;;;;;;;;;1881670;75;26760;-87
2022/07/21 13:29:15;;;;;;;3.27;3.08;;;;;;;;;;1884452;74;26280;-87
2022/07/21 13:31:43;;;;;;;3.37;3.17;;;;;;;;;;1890942;75;26179;-87
2022/07/21 13:34:10;;;;;;;3.10;3.00;;;;;;;;;;1901296;75;26607;-87
2022/07/21 13:36:38;;;;;;;3.35;3.15;;;;;;;;;;1887228;75;26206;-87
2022/07/21 13:39:05;;;;;;;4.40;3.12;;;;;;;;;;1889722;74;26197;-88
2022/07/21 13:41:33;;;;;;;3.45;3.25;;;;;;;;;;1875032;75;26261;-87
2022/07/21 13:44:00;;;;;;;3.30;3.10;;;;;;;;;;1890518;75;26246;-87
2022/07/21 13:46:28;;;;;;;3.55;3.25;;;;;;;;;;1880005;74;26248;-86
2022/07/21 13:48:55;;;;;;;3.58;3.37;;;;;;;;;;1879893;75;26310;-87
2022/07/21 13:51:23;;;;;;;3.00;2.90;;;;;;;;;;1880879;74;26664;-87
2022/07/21 13:53:51;;;;;;;3.22;3.12;;;;;;;;;;1892753;75;26565;-87
2022/07/21 13:56:19;;;;;;;3.52;3.30;;;;;;;;;;1864822;75;26183;-88
2022/07/21 13:58:46;;;;;;;3.00;2.90;;;;;;;;;;1887158;75;26197;-87
2022/07/21 14:01:13;;;;;;;3.08;2.98;;;;;;;;;;1875440;74;26227;-87
2022/07/21 14:03:41;;;;;;;4.67;3.20;;;;;;;;;;1867590;75;26656;-88
2022/07/21 14:06:08;;;;;;;3.30;3.10;;;;;;;;;;1899203;74;26284;-87
2022/07/21 14:08:36;;;;;;;3.17;2.98;;;;;;;;;;1876547;75;26717;-87
2022/07/21 14:11:04;;;;;;;3.55;3.35;;;;;;;;;;1872656;75;26206;-86
2022/07/21 14:13:31;;;;;;;3.27;3.08;;;;;;;;;;1897957;75;26292;-87
2022/07/21 14:15:58;;;;;;;3.00;2.77;;;;;;;;;;1889726;75;27038;-87
2022/07/21 14:18:26;;;;;;;3.17;2.98;;;;;;;;;;1892659;75;26273;-87
2022/07/21 14:20:53;;;;;;;3.12;3.02;;;;;;;;;;1893713;75;26188;-87
2022/07/21 14:23:20;;;;;;;3.20;3.00;;;;;;;;;;1888080;74;26249;-87
2022/07/21 14:25:48;;;;;;;3.40;3.20;;;;;;;;;;1891187;75;26285;-88
2022/07/21 14:28:16;;;;;;;3.17;3.08;;;;;;;;;;1878566;75;26789;-86
2022/07/21 14:30:44;;;;;;;3.00;2.90;;;;;;;;;;1890793;75;26244;-86
2022/07/21 14:33:11;;;;;;;2.92;2.83;;;;;;;;;;1887772;75;26759;-86
2022/07/21 14:35:39;;;;;;;3.42;3.12;;;;;;;;;;1890470;75;26183;-87
2022/07/21 14:38:06;;;;;;;3.67;3.37;;;;;;;;;;1885309;75;26199;-87
2022/07/21 14:40:34;;;;;;;3.00;2.90;;;;;;;;;;1869305;75;26179;-86
2022/07/21 14:43:01;;;;;;;3.17;3.00;;;;;;;;;;1890743;75;26187;-88
2022/07/21 14:45:30;;;;;;;3.10;2.95;;;;;;;;;;1876592;76;26259;-87
2022/07/21 14:47:57;;;;;;;3.15;3.05;;;;;;;;;;1876755;75;26709;-86
2022/07/21 14:50:26;;;;;;;3.42;3.22;;;;;;;;;;1896434;75;26316;-87
2022/07/21 14:52:54;;;;;;;3.37;3.17;;;;;;;;;;1872818;75;26198;-87
2022/07/21 14:55:22;;;;;;;3.30;3.20;;;;;;;;;;1883901;75;26694;-86